Time;durP1;ratioP1;P1;durP2;ratioP2;P2;SDS_P1;SDS_P2;PMS_P1;PMS_P2;Temp;Humidity;BMP_temperature;BMP_pressure;BME280_temperature;BME280_humidity;BME280_pressure;Samples;Min_cycle;Max_cycle;Signal;HPM_P1;HPM_P2
2021/10/06 00:00:08;;;;;;;3.95;3.03;;;;;;;13.09;100.00;97316.25;4958847;29;20085;-77
2021/10/06 00:02:34;;;;;;;3.78;2.90;;;;;;;13.08;100.00;97319.31;4957890;29;20126;-79
2021/10/06 00:05:01;;;;;;;5.43;2.85;;;;;;;13.16;100.00;97325.78;4958896;29;20202;-78
2021/10/06 00:07:28;;;;;;;4.07;2.92;;;;;;;13.11;100.00;97321.34;4943409;29;20492;-76
2021/10/06 00:09:55;;;;;;;4.97;3.10;;;;;;;13.18;100.00;97324.31;4959796;29;20051;-77
2021/10/06 00:12:26;;;;;;;5.97;3.00;;;;;;;13.27;100.00;97326.91;4959124;28;20059;-78
2021/10/06 00:14:53;;;;;;;4.32;2.65;;;;;;;13.39;100.00;97332.38;4963871;28;20047;-77
2021/10/06 00:17:24;;;;;;;3.92;2.60;;;;;;;13.40;100.00;97323.84;4966003;29;20039;-78
2021/10/06 00:19:52;;;;;;;4.47;2.60;;;;;;;13.39;100.00;97321.50;4964919;28;20126;-78
2021/10/06 00:22:22;;;;;;;6.45;2.60;;;;;;;13.48;100.00;97338.47;4962842;29;20054;-78
2021/10/06 00:24:51;;;;;;;4.68;2.58;;;;;;;13.52;100.00;97333.94;4970990;28;20078;-77
2021/10/06 00:27:22;;;;;;;4.07;2.70;;;;;;;13.54;100.00;97335.19;4968108;29;20058;-78
2021/10/06 00:29:51;;;;;;;5.80;2.75;;;;;;;13.53;100.00;97320.00;4953253;29;20051;-77
2021/10/06 00:32:24;;;;;;;3.58;2.58;;;;;;;13.56;100.00;97323.97;4957900;29;20123;-76
2021/10/06 00:34:52;;;;;;;5.18;2.65;;;;;;;13.63;100.00;97322.25;4963353;28;20043;-77
2021/10/06 00:37:19;;;;;;;6.38;2.60;;;;;;;13.61;100.00;97307.41;4961848;29;20047;-77
2021/10/06 00:39:46;;;;;;;3.63;2.40;;;;;;;13.50;100.00;97320.66;4961884;29;20066;-78
2021/10/06 00:42:13;;;;;;;4.47;2.90;;;;;;;13.59;100.00;97321.38;4977198;28;20028;-79
2021/10/06 00:44:41;;;;;;;4.13;2.92;;;;;;;13.53;100.00;97319.19;4960209;29;20039;-79
2021/10/06 00:47:12;;;;;;;7.13;2.97;;;;;;;13.51;100.00;97316.03;4964336;29;20027;-79
2021/10/06 00:49:43;;;;;;;3.35;2.50;;;;;;;13.43;100.00;97325.91;4962943;28;20122;-77
2021/10/06 00:52:12;;;;;;;4.90;2.78;;;;;;;13.44;100.00;97319.34;4962052;28;20039;-78
2021/10/06 00:54:41;;;;;;;3.38;2.42;;;;;;;13.40;100.00;97323.84;4977375;28;20032;-78
2021/10/06 00:57:09;;;;;;;3.63;2.22;;;;;;;13.41;100.00;97333.59;4948106;29;20051;-78
2021/10/06 00:59:36;;;;;;;2.55;1.95;;;;;;;13.49;100.00;97321.03;4978709;28;20065;-78
2021/10/06 01:02:03;;;;;;;4.80;2.20;;;;;;;13.47;100.00;97331.47;4959816;28;20043;-78
2021/10/06 01:04:32;;;;;;;3.17;1.58;;;;;;;13.52;100.00;97323.84;4960646;28;20488;-77
2021/10/06 01:06:59;;;;;;;4.25;2.13;;;;;;;13.68;100.00;97326.66;4959072;28;20039;-78
2021/10/06 01:09:29;;;;;;;2.25;1.60;;;;;;;13.69;100.00;97323.63;4977300;28;20048;-78
2021/10/06 01:11:57;;;;;;;3.90;1.50;;;;;;;13.83;100.00;97336.88;4957895;29;20053;-77
2021/10/06 01:14:26;;;;;;;2.25;1.50;;;;;;;13.92;100.00;97342.97;4958725;28;20106;-77
2021/10/06 01:16:56;;;;;;;1.73;1.23;;;;;;;13.98;100.00;97340.78;4941275;29;20528;-78
2021/10/06 01:19:29;;;;;;;4.78;1.67;;;;;;;14.09;100.00;97352.78;4959023;28;20041;-78
2021/10/06 01:21:57;;;;;;;2.75;1.50;;;;;;;14.13;100.00;97359.94;4940488;29;20301;-79
2021/10/06 01:24:27;;;;;;;4.30;1.50;;;;;;;14.14;100.00;97356.03;4957901;28;20120;-78
2021/10/06 01:27:00;;;;;;;2.30;1.42;;;;;;;14.12;100.00;97358.31;4958467;28;20472;-78
2021/10/06 01:29:29;;;;;;;2.15;1.35;;;;;;;14.16;100.00;97358.44;4961829;29;20047;-79
2021/10/06 01:31:56;;;;;;;2.83;1.40;;;;;;;14.20;100.00;97370.22;4989069;28;20086;-78
2021/10/06 01:34:24;;;;;;;1.92;1.30;;;;;;;14.19;100.00;97358.56;4975237;28;20050;-78
2021/10/06 01:36:54;;;;;;;1.75;1.10;;;;;;;14.16;100.00;97364.69;4975313;28;20439;-79
2021/10/06 01:39:26;;;;;;;1.63;1.30;;;;;;;14.25;100.00;97373.50;4961588;29;20066;-78
2021/10/06 01:41:53;;;;;;;1.92;1.40;;;;;;;14.17;100.00;97365.47;4973648;29;20047;-79
2021/10/06 01:44:21;;;;;;;3.80;1.38;;;;;;;14.14;100.00;97377.81;4974107;28;20035;-78
2021/10/06 01:46:48;;;;;;;2.22;1.20;;;;;;;14.29;100.00;97374.41;4973304;28;20067;-81
2021/10/06 01:49:14;;;;;;;4.50;1.40;;;;;;;14.22;100.00;97371.47;4974757;28;20084;-79
2021/10/06 01:51:41;;;;;;;2.45;1.20;;;;;;;14.22;100.00;97376.13;4957068;29;20578;-79
2021/10/06 01:54:09;;;;;;;1.92;1.00;;;;;;;14.23;100.00;97369.53;4953407;29;20047;-78
2021/10/06 01:56:37;;;;;;;1.95;1.10;;;;;;;14.09;100.00;97369.13;4954270;28;20039;-78
2021/10/06 01:59:04;;;;;;;3.25;0.98;;;;;;;14.02;100.00;97377.06;4953759;29;20070;-79
2021/10/06 02:01:31;;;;;;;2.80;1.10;;;;;;;14.02;100.00;97383.31;4957864;28;20047;-77
2021/10/06 02:03:58;;;;;;;2.92;1.10;;;;;;;14.04;100.00;97363.94;4962555;29;20047;-79
2021/10/06 02:06:26;;;;;;;3.05;1.20;;;;;;;14.03;100.00;97387.63;4958683;29;20046;-78
2021/10/06 02:08:52;;;;;;;3.22;1.20;;;;;;;13.88;100.00;97392.97;4972884;28;20404;-77
2021/10/06 02:11:21;;;;;;;7.75;1.30;;;;;;;13.98;100.00;97396.03;4958472;28;20046;-77
2021/10/06 02:13:47;;;;;;;4.72;1.08;;;;;;;13.95;100.00;97402.16;4960598;28;20050;-77
2021/10/06 02:16:14;;;;;;;1.83;1.02;;;;;;;13.87;100.00;97400.34;4973628;28;20051;-77
2021/10/06 02:18:44;;;;;;;2.30;0.85;;;;;;;13.97;100.00;97415.41;4958100;29;20067;-78
2021/10/06 02:21:23;;;;;;;2.10;0.70;;;;;;;13.82;100.00;97413.38;4960649;28;20098;-77
2021/10/06 02:23:49;;;;;;;1.73;0.90;;;;;;;13.82;100.00;97416.09;4973533;28;20411;-77
2021/10/06 02:26:16;;;;;;;2.17;0.90;;;;;;;13.88;100.00;97417.47;4956611;29;20086;-78
2021/10/06 02:28:42;;;;;;;4.22;1.10;;;;;;;13.78;100.00;97428.81;4958176;28;20044;-77
2021/10/06 02:31:09;;;;;;;3.22;1.10;;;;;;;13.75;100.00;97433.78;4959650;29;20051;-78
2021/10/06 02:33:36;;;;;;;1.20;0.90;;;;;;;13.69;100.00;97447.94;4958235;28;20043;-78
2021/10/06 02:36:02;;;;;;;2.88;0.85;;;;;;;13.72;100.00;97439.91;4956140;28;20047;-77
2021/10/06 02:38:29;;;;;;;1.88;1.00;;;;;;;13.59;100.00;97448.41;4951189;29;20050;-78
2021/10/06 02:40:55;;;;;;;1.85;0.90;;;;;;;13.66;100.00;97462.22;4967284;28;20046;-77
2021/10/06 02:43:22;;;;;;;3.38;0.85;;;;;;;13.59;100.00;97459.28;4952871;28;20050;-78
2021/10/06 02:45:49;;;;;;;3.13;1.15;;;;;;;13.70;100.00;97463.91;4967493;28;20051;-78
2021/10/06 02:48:16;;;;;;;2.88;1.13;;;;;;;13.61;100.00;97457.00;4951000;29;20043;-78
2021/10/06 02:50:43;;;;;;;4.35;1.35;;;;;;;13.47;100.00;97462.00;4951306;28;20503;-78
2021/10/06 02:53:09;;;;;;;3.00;0.98;;;;;;;13.42;100.00;97473.09;4954486;28;20110;-79
2021/10/06 02:55:36;;;;;;;3.97;0.82;;;;;;;13.50;100.00;97466.72;4953462;29;20047;-78
2021/10/06 02:58:02;;;;;;;4.50;1.05;;;;;;;13.35;100.00;97461.94;4953432;28;20039;-79
2021/10/06 03:00:29;;;;;;;3.97;1.10;;;;;;;13.39;100.00;97466.41;4952830;28;20050;-78
2021/10/06 03:02:56;;;;;;;3.08;0.80;;;;;;;13.33;100.00;97477.81;4953095;28;20555;-80
2021/10/06 03:05:22;;;;;;;3.85;0.82;;;;;;;13.35;100.00;97478.25;4936367;29;20106;-78
2021/10/06 03:07:49;;;;;;;2.55;0.80;;;;;;;13.23;100.00;97480.97;4967503;28;20411;-78
2021/10/06 03:10:16;;;;;;;6.18;1.00;;;;;;;13.21;100.00;97489.47;4952483;29;20047;-78
2021/10/06 03:12:42;;;;;;;2.70;0.88;;;;;;;13.28;100.00;97486.19;4952790;29;20055;-78
2021/10/06 03:15:11;;;;;;;4.20;0.88;;;;;;;13.13;100.00;97487.63;4952828;28;20046;-78
2021/10/06 03:17:39;;;;;;;8.02;0.98;;;;;;;13.07;100.00;97495.19;4952734;28;20126;-78
2021/10/06 03:20:07;;;;;;;4.18;0.80;;;;;;;13.03;100.00;97496.16;4954357;28;20043;-80
2021/10/06 03:22:34;;;;;;;2.42;1.00;;;;;;;12.91;100.00;97510.47;4953543;29;20079;-78
2021/10/06 03:25:02;;;;;;;4.55;0.90;;;;;;;12.85;100.00;97508.31;4956256;28;20043;-78
2021/10/06 03:27:29;;;;;;;4.95;0.82;;;;;;;12.78;100.00;97503.38;4957845;29;20043;-79
2021/10/06 03:29:55;;;;;;;4.53;1.05;;;;;;;12.76;100.00;97502.94;4955434;28;20550;-79
2021/10/06 03:32:22;;;;;;;2.97;0.85;;;;;;;12.66;100.00;97514.19;4953262;29;20097;-78
2021/10/06 03:34:49;;;;;;;4.90;0.80;;;;;;;12.66;100.00;97519.63;4951516;29;20062;-78
2021/10/06 03:37:16;;;;;;;4.32;0.88;;;;;;;12.61;100.00;97519.03;4951091;28;20396;-78
2021/10/06 03:39:42;;;;;;;3.05;1.00;;;;;;;12.64;100.00;97516.44;4952455;28;20039;-78
2021/10/06 03:42:09;;;;;;;6.05;1.00;;;;;;;12.39;100.00;97520.13;4966704;28;20181;-78
2021/10/06 03:44:35;;;;;;;4.15;0.70;;;;;;;12.45;100.00;97532.38;4935131;29;20055;-79
2021/10/06 03:47:02;;;;;;;5.75;0.82;;;;;;;12.38;100.00;97535.63;4950846;28;20146;-78
2021/10/06 03:49:29;;;;;;;3.70;0.68;;;;;;;12.39;100.00;97545.34;4950974;29;20051;-79
2021/10/06 03:51:56;;;;;;;3.42;0.80;;;;;;;12.22;100.00;97550.88;4966409;28;20044;-80
2021/10/06 03:54:22;;;;;;;5.85;1.15;;;;;;;12.15;100.00;97552.50;4918484;29;20146;-78
2021/10/06 03:56:49;;;;;;;3.00;1.00;;;;;;;12.18;100.00;97562.72;4948616;28;20057;-76
2021/10/06 03:59:16;;;;;;;3.80;0.70;;;;;;;12.18;100.00;97568.16;4951340;29;20061;-78
2021/10/06 04:01:42;;;;;;;6.13;0.93;;;;;;;12.09;100.00;97576.31;4950301;28;20432;-76
2021/10/06 04:04:10;;;;;;;3.53;0.90;;;;;;;12.04;100.00;97583.84;4950011;29;20476;-78
2021/10/06 04:06:37;;;;;;;2.45;0.90;;;;;;;11.90;100.00;97594.13;4965118;28;20043;-77
2021/10/06 04:09:03;;;;;;;7.60;0.90;;;;;;;12.02;100.00;97586.91;4950064;29;20131;-75
2021/10/06 04:11:31;;;;;;;6.07;0.90;;;;;;;11.90;100.00;97570.47;4949780;29;20570;-79
2021/10/06 04:13:58;;;;;;;4.13;1.02;;;;;;;11.79;100.00;97589.00;4950325;29;20051;-77
2021/10/06 04:16:24;;;;;;;3.55;0.98;;;;;;;11.73;100.00;97578.69;4949775;29;20055;-77
2021/10/06 04:18:51;;;;;;;3.58;0.90;;;;;;;11.64;100.00;97586.03;4949888;29;20053;-78
2021/10/06 04:21:18;;;;;;;3.47;0.80;;;;;;;11.46;100.00;97592.59;4966525;28;20468;-77
2021/10/06 04:23:44;;;;;;;4.40;0.80;;;;;;;11.53;100.00;97590.97;4935124;29;20047;-77
2021/10/06 04:26:11;;;;;;;7.45;1.25;;;;;;;11.51;100.00;97589.72;4966843;28;20146;-78
2021/10/06 04:28:38;;;;;;;4.95;1.15;;;;;;;11.48;100.00;97593.88;4949988;28;20166;-77
2021/10/06 04:31:05;;;;;;;4.72;1.55;;;;;;;11.39;100.00;97601.19;4949514;29;20047;-76
2021/10/06 04:33:31;;;;;;;8.07;1.30;;;;;;;11.31;100.00;97588.44;4965063;28;20079;-77
2021/10/06 04:35:58;;;;;;;3.20;0.90;;;;;;;11.40;100.00;97599.28;4950367;28;20047;-78
2021/10/06 04:38:25;;;;;;;3.28;1.10;;;;;;;11.25;100.00;97590.50;4952910;29;20043;-77
2021/10/06 04:40:51;;;;;;;7.18;1.30;;;;;;;11.24;100.00;97597.06;4953448;29;20065;-77
2021/10/06 04:43:18;;;;;;;6.90;1.30;;;;;;;11.28;100.00;97594.50;4948990;28;20430;-76
2021/10/06 04:45:45;;;;;;;7.13;1.38;;;;;;;11.21;100.00;97600.41;4936314;29;20324;-78
2021/10/06 04:48:12;;;;;;;4.90;1.15;;;;;;;11.20;100.00;97595.34;4952604;28;20278;-78
2021/10/06 04:50:38;;;;;;;5.38;1.08;;;;;;;11.13;100.00;97598.50;4952693;29;20065;-78
2021/10/06 04:53:05;;;;;;;6.90;1.00;;;;;;;11.12;100.00;97594.19;4936714;29;20177;-78
2021/10/06 04:55:32;;;;;;;5.55;1.33;;;;;;;11.10;100.00;97604.56;4953152;29;20050;-78
2021/10/06 04:57:59;;;;;;;9.95;1.02;;;;;;;11.17;100.00;97595.97;4936478;29;20047;-78
2021/10/06 05:00:27;;;;;;;9.45;1.45;;;;;;;11.16;100.00;97588.94;4951991;29;20051;-78
2021/10/06 05:02:53;;;;;;;3.92;1.10;;;;;;;11.31;100.00;97598.47;4936588;29;20199;-78
2021/10/06 05:05:21;;;;;;;6.13;1.33;;;;;;;11.26;100.00;97600.25;4936488;29;20089;-77
2021/10/06 05:07:47;;;;;;;11.20;1.63;;;;;;;11.24;100.00;97594.38;4936411;29;20468;-77
2021/10/06 05:10:14;;;;;;;9.23;1.08;;;;;;;11.13;100.00;97603.13;4952855;29;20061;-78
2021/10/06 05:12:41;;;;;;;11.93;1.48;;;;;;;11.15;100.00;97614.44;4936669;29;20085;-78
2021/10/06 05:15:08;;;;;;;7.72;1.23;;;;;;;11.10;100.00;97620.81;4936717;29;20163;-78
2021/10/06 05:17:34;;;;;;;8.13;1.60;;;;;;;11.17;100.00;97621.13;4936259;29;20047;-78
2021/10/06 05:20:01;;;;;;;5.53;1.02;;;;;;;11.26;100.00;97608.38;4937624;29;20082;-76
2021/10/06 05:22:28;;;;;;;3.90;1.10;;;;;;;11.54;100.00;97621.56;4937230;29;20059;-77
2021/10/06 05:24:54;;;;;;;6.88;1.33;;;;;;;11.68;100.00;97620.34;4936448;29;20047;-77
2021/10/06 05:27:21;;;;;;;7.07;0.90;;;;;;;11.78;100.00;97627.31;4935665;29;20051;-77
2021/10/06 05:29:47;;;;;;;5.78;1.15;;;;;;;11.81;100.00;97618.53;4930663;29;20067;-77
2021/10/06 05:32:14;;;;;;;4.70;1.40;;;;;;;11.85;100.00;97623.00;4962963;28;20046;-76
2021/10/06 05:34:40;;;;;;;4.95;1.00;;;;;;;11.83;100.00;97624.44;4933895;29;20707;-76
2021/10/06 05:37:07;;;;;;;5.68;1.17;;;;;;;11.92;100.00;97636.09;4950933;29;20094;-79
2021/10/06 05:39:34;;;;;;;5.40;0.90;;;;;;;11.89;100.00;97636.72;4950784;29;20503;-76
2021/10/06 05:42:00;;;;;;;5.65;0.90;;;;;;;12.04;100.00;97649.75;5012917;23;20422;-80
2021/10/06 05:44:29;;;;;;;9.75;1.15;;;;;;;12.17;100.00;97646.06;4976353;28;20096;-82
2021/10/06 05:46:56;;;;;;;4.88;1.10;;;;;;;12.07;100.00;97640.19;4974743;28;20372;-81
2021/10/06 05:49:23;;;;;;;6.93;1.20;;;;;;;12.12;100.00;97650.84;4973647;28;20054;-81
2021/10/06 05:51:50;;;;;;;4.07;1.00;;;;;;;12.20;100.00;97658.19;4989698;28;20530;-82
2021/10/06 05:54:16;;;;;;;3.97;1.20;;;;;;;12.11;100.00;97660.91;4994733;28;20152;-81
2021/10/06 05:56:43;;;;;;;4.80;1.23;;;;;;;12.01;100.00;97666.69;4993483;28;20085;-79
2021/10/06 05:59:10;;;;;;;5.45;1.38;;;;;;;12.06;100.00;97668.41;4995363;28;20049;-80
2021/10/06 06:01:37;;;;;;;4.43;1.35;;;;;;;12.05;100.00;97675.78;4981816;28;20050;-81
2021/10/06 06:04:04;;;;;;;6.53;1.80;;;;;;;12.18;100.00;97677.47;4978329;28;20058;-81
2021/10/06 06:06:31;;;;;;;8.98;1.60;;;;;;;12.24;100.00;97683.53;4955056;28;20059;-80
2021/10/06 06:08:58;;;;;;;5.93;1.30;;;;;;;12.29;100.00;97692.31;4971575;28;20046;-81
2021/10/06 06:11:27;;;;;;;3.05;0.90;;;;;;;12.31;100.00;97683.84;4965465;28;20122;-82
2021/10/06 06:13:54;;;;;;;8.75;1.10;;;;;;;12.44;100.00;97682.81;4973265;28;20054;-80
2021/10/06 06:16:21;;;;;;;3.15;0.90;;;;;;;12.46;100.00;97694.94;4971491;28;20089;-80
2021/10/06 06:18:48;;;;;;;5.65;1.33;;;;;;;12.59;100.00;97697.81;4972683;28;20050;-80
2021/10/06 06:21:14;;;;;;;6.10;1.65;;;;;;;12.55;100.00;97699.56;4981460;28;20622;-82
2021/10/06 06:23:41;;;;;;;6.65;1.30;;;;;;;12.60;100.00;97704.81;4989702;28;20070;-80
2021/10/06 06:26:09;;;;;;;2.78;0.95;;;;;;;12.62;100.00;97702.59;4976172;28;20081;-80
2021/10/06 06:28:38;;;;;;;6.75;1.27;;;;;;;12.62;100.00;97713.44;4972774;28;20053;-82
2021/10/06 06:31:06;;;;;;;5.25;1.00;;;;;;;12.79;100.00;97705.22;4973293;28;20423;-81
2021/10/06 06:33:34;;;;;;;5.20;0.90;;;;;;;12.70;100.00;97702.53;4974027;28;20292;-81
2021/10/06 06:36:00;;;;;;;3.70;0.80;;;;;;;12.60;100.00;97713.75;4973403;28;20126;-80
2021/10/06 06:38:27;;;;;;;4.75;1.00;;;;;;;12.83;100.00;97703.41;4973444;28;20056;-81
2021/10/06 06:40:54;;;;;;;5.50;1.00;;;;;;;12.73;100.00;97712.75;4973428;28;20527;-81
2021/10/06 06:43:21;;;;;;;4.03;0.90;;;;;;;12.83;100.00;97717.81;4975014;28;20050;-80
2021/10/06 06:45:48;;;;;;;3.83;1.00;;;;;;;12.89;100.00;97713.00;4972527;28;20059;-81
2021/10/06 06:48:15;;;;;;;3.75;0.90;;;;;;;13.06;100.00;97721.03;4972051;28;20085;-79
2021/10/06 06:50:46;;;;;;;6.28;0.85;;;;;;;13.00;100.00;97717.72;4975065;28;20046;-81
2021/10/06 06:53:12;;;;;;;6.95;1.40;;;;;;;13.10;100.00;97720.09;4984230;28;20549;-80
2021/10/06 06:55:39;;;;;;;6.75;1.00;;;;;;;13.16;100.00;97719.91;4992518;28;20092;-79
2021/10/06 06:58:06;;;;;;;6.90;1.10;;;;;;;13.21;100.00;97719.72;4973708;28;20105;-82
2021/10/06 07:00:33;;;;;;;6.55;0.95;;;;;;;13.37;100.00;97729.66;4974771;28;20050;-80
2021/10/06 07:03:00;;;;;;;3.38;0.90;;;;;;;13.39;100.00;97719.28;4992432;28;20054;-80
2021/10/06 07:05:29;;;;;;;9.90;1.00;;;;;;;13.41;100.00;97725.19;4993970;28;20632;-80
2021/10/06 07:07:56;;;;;;;3.13;0.82;;;;;;;13.37;100.00;97734.34;5013483;28;20072;-80
2021/10/06 07:10:23;;;;;;;4.53;0.82;;;;;;;13.18;100.00;97729.34;4995361;28;20080;-80
2021/10/06 07:12:49;;;;;;;5.75;1.08;;;;;;;13.39;100.00;97727.44;4976198;28;20455;-79
2021/10/06 07:15:17;;;;;;;5.18;1.15;;;;;;;13.52;100.00;97720.16;4974282;28;20063;-82
2021/10/06 07:17:43;;;;;;;5.13;1.33;;;;;;;13.42;100.00;97726.75;4973309;28;20465;-80
2021/10/06 07:20:11;;;;;;;6.57;1.05;;;;;;;13.59;100.00;97734.81;4972540;28;20055;-81
2021/10/06 07:22:38;;;;;;;6.43;1.00;;;;;;;13.55;100.00;97725.69;4972414;28;20066;-80
2021/10/06 07:25:06;;;;;;;3.55;0.90;;;;;;;13.63;100.00;97741.16;4978133;28;20051;-79
2021/10/06 07:27:33;;;;;;;5.70;1.13;;;;;;;13.69;100.00;97747.22;4972644;28;20550;-81
2021/10/06 07:30:00;;;;;;;5.55;1.20;;;;;;;13.84;100.00;97737.63;4977060;28;20089;-79
2021/10/06 07:32:27;;;;;;;3.47;1.15;;;;;;;13.82;100.00;97746.16;4977153;28;20104;-81
2021/10/06 07:34:54;;;;;;;1.17;0.57;;;;;;;13.94;100.00;97750.84;4974791;28;20061;-80
2021/10/06 07:37:20;;;;;;;6.32;0.90;;;;;;;13.73;100.00;97750.84;4974011;28;20142;-80
2021/10/06 07:39:47;;;;;;;3.17;1.63;;;;;;;13.88;100.00;97766.59;4974450;28;20042;-81
2021/10/06 07:42:15;;;;;;;5.78;1.00;;;;;;;13.60;100.00;97766.31;4973782;28;20141;-79
2021/10/06 07:44:43;;;;;;;4.82;1.08;;;;;;;13.63;100.00;97778.44;4974034;28;20054;-81
2021/10/06 07:47:10;;;;;;;3.63;1.13;;;;;;;13.75;100.00;97778.53;4970864;28;20074;-80
2021/10/06 07:49:37;;;;;;;3.30;0.90;;;;;;;13.73;100.00;97786.22;4978071;28;20051;-81
2021/10/06 07:52:04;;;;;;;3.88;0.85;;;;;;;13.99;100.00;97786.03;4978030;28;20208;-82
2021/10/06 07:54:31;;;;;;;6.43;1.10;;;;;;;13.72;100.00;97774.56;4978563;28;20050;-81
2021/10/06 07:56:58;;;;;;;4.40;0.90;;;;;;;13.62;100.00;97780.41;4979662;28;20090;-80
2021/10/06 07:59:24;;;;;;;5.30;1.02;;;;;;;13.49;100.00;97786.06;4978033;28;20222;-81
2021/10/06 08:01:51;;;;;;;6.28;1.38;;;;;;;13.34;100.00;97794.81;4973982;28;20058;-80
2021/10/06 08:04:18;;;;;;;4.78;1.10;;;;;;;13.22;100.00;97792.78;4979664;28;20144;-80
2021/10/06 08:06:45;;;;;;;4.40;1.10;;;;;;;13.01;100.00;97797.31;4996007;28;20054;-80
2021/10/06 08:09:16;;;;;;;6.88;1.02;;;;;;;13.00;100.00;97785.69;4995216;28;20049;-80
2021/10/06 08:11:43;;;;;;;3.72;1.38;;;;;;;12.85;100.00;97799.00;4988176;28;20093;-81
2021/10/06 08:14:10;;;;;;;2.58;0.65;;;;;;;12.95;100.00;97799.44;4981643;28;20057;-80
2021/10/06 08:16:40;;;;;;;6.28;1.42;;;;;;;13.06;100.00;97799.84;4983969;28;20089;-81
2021/10/06 08:19:08;;;;;;;4.68;1.20;;;;;;;13.00;100.00;97814.75;4984238;28;20066;-80
2021/10/06 08:21:35;;;;;;;4.80;1.20;;;;;;;13.38;100.00;97812.84;4980179;28;20078;-81
2021/10/06 08:24:03;;;;;;;3.92;0.90;;;;;;;13.37;100.00;97808.53;4966060;28;20206;-81
2021/10/06 08:26:30;;;;;;;10.35;1.10;;;;;;;13.75;100.00;97817.41;4984469;28;20054;-82
2021/10/06 08:28:56;;;;;;;6.68;1.10;;;;;;;13.51;100.00;97819.97;4983639;28;20070;-80
2021/10/06 08:31:28;;;;;;;9.63;1.00;;;;;;;13.79;100.00;97805.88;4973893;28;20051;-81
2021/10/06 08:33:58;;;;;;;3.25;0.90;;;;;;;13.85;100.00;97816.25;4985424;28;20069;-81
2021/10/06 08:36:25;;;;;;;5.15;1.13;;;;;;;13.89;100.00;97819.88;4986050;28;20050;-79
2021/10/06 08:38:52;;;;;;;4.82;1.08;;;;;;;13.77;100.00;97840.78;4986906;28;20054;-82
2021/10/06 08:41:31;;;;;;;4.40;0.88;;;;;;;14.30;100.00;97855.25;4991322;28;20269;-80
2021/10/06 08:44:01;;;;;;;3.65;0.95;;;;;;;14.25;100.00;97849.22;4974731;28;20109;-81
2021/10/06 08:46:47;;;;;;;3.03;0.90;;;;;;;14.17;100.00;97828.31;4999269;28;20070;-82
2021/10/06 08:49:22;;;;;;;4.68;1.20;;;;;;;14.22;100.00;97830.84;4982120;28;20046;-81
2021/10/06 08:51:51;;;;;;;3.40;0.90;;;;;;;14.59;100.00;97854.41;4999821;28;20042;-81
2021/10/06 08:54:25;;;;;;;5.78;1.05;;;;;;;14.48;100.00;97830.66;4984979;28;20054;-80
2021/10/06 08:57:06;;;;;;;4.95;1.15;;;;;;;14.48;100.00;97830.66;4979686;28;20054;-81
2021/10/06 08:59:41;;;;;;;3.58;0.90;;;;;;;14.76;100.00;97845.28;4978476;28;20429;-81
2021/10/06 09:02:36;;;;;;;4.60;0.90;;;;;;;14.45;100.00;97837.56;4982396;28;20178;-82
2021/10/06 09:05:11;;;;;;;3.30;0.98;;;;;;;14.39;100.00;97851.69;4984602;28;20053;-80
2021/10/06 09:07:58;;;;;;;3.42;1.08;;;;;;;14.62;100.00;97861.91;4980561;28;20050;-80
2021/10/06 09:10:35;;;;;;;25.40;3.63;;;;;;;14.13;100.00;97827.38;4997095;28;20054;-81
2021/10/06 09:13:07;;;;;;;9.40;1.98;;;;;;;13.99;100.00;97846.69;4987156;28;20133;-80
2021/10/06 09:15:43;;;;;;;4.78;1.00;;;;;;;13.96;100.00;97828.31;5003550;28;20046;-81
2021/10/06 09:18:15;;;;;;;4.72;0.90;;;;;;;14.00;100.00;97837.41;5005206;28;20050;-81
2021/10/06 09:20:43;;;;;;;4.32;0.82;;;;;;;13.66;100.00;97833.00;5003222;28;20053;-81
2021/10/06 09:23:18;;;;;;;5.10;0.95;;;;;;;13.72;100.00;97834.41;5005557;28;20054;-81
2021/10/06 09:25:53;;;;;;;6.60;1.15;;;;;;;14.02;100.00;97870.53;5002242;28;20499;-80
2021/10/06 09:28:44;;;;;;;3.30;1.10;;;;;;;13.95;100.00;97843.06;5005925;28;20046;-81
2021/10/06 09:31:35;;;;;;;9.18;1.23;;;;;;;14.14;100.00;97859.72;4988136;28;20062;-80
2021/10/06 09:34:08;;;;;;;3.63;1.10;;;;;;;14.23;100.00;97849.56;5014486;28;20490;-81
2021/10/06 09:36:36;;;;;;;6.45;0.90;;;;;;;14.32;100.00;97857.69;5002720;28;20057;-80
2021/10/06 09:39:10;;;;;;;5.28;0.90;;;;;;;14.27;100.00;97852.44;5002510;28;20057;-80
2021/10/06 09:41:40;;;;;;;4.75;1.17;;;;;;;14.47;100.00;97883.53;5001499;28;20045;-81
2021/10/06 09:44:22;;;;;;;4.03;1.13;;;;;;;14.46;100.00;97876.47;4986426;28;20054;-78
2021/10/06 09:46:58;;;;;;;5.00;0.90;;;;;;;14.28;100.00;97892.94;4977245;28;20055;-78
2021/10/06 09:49:36;;;;;;;5.00;0.90;;;;;;;14.19;100.00;97878.59;4973664;28;20050;-78
2021/10/06 09:52:21;;;;;;;2.05;0.90;;;;;;;14.41;100.00;97898.47;4986662;28;20050;-78
2021/10/06 09:54:57;;;;;;;5.65;1.20;;;;;;;14.67;100.00;97891.66;4979490;28;20563;-80
2021/10/06 09:57:29;;;;;;;3.70;1.10;;;;;;;14.67;100.00;97899.84;4994284;28;20075;-80
2021/10/06 10:00:16;;;;;;;4.03;0.98;;;;;;;14.99;100.00;97890.84;5014592;28;20037;-79
2021/10/06 10:02:45;;;;;;;3.50;1.10;;;;;;;15.34;100.00;97902.19;4983554;28;20105;-78
2021/10/06 10:05:15;;;;;;;4.10;1.10;;;;;;;15.33;100.00;97910.72;5005014;28;20058;-79
2021/10/06 10:07:42;;;;;;;7.50;1.10;;;;;;;15.31;100.00;97912.97;5009159;28;20062;-80
2021/10/06 10:10:10;;;;;;;3.53;0.80;;;;;;;15.18;100.00;97914.06;5024871;28;20344;-79
2021/10/06 10:12:46;;;;;;;5.28;1.10;;;;;;;14.89;100.00;97915.81;5024795;28;20117;-79
2021/10/06 10:15:28;;;;;;;4.50;0.93;;;;;;;15.31;100.00;97904.78;5014153;28;20088;-80
2021/10/06 10:17:58;;;;;;;5.57;0.80;;;;;;;15.53;100.00;97918.84;5010402;28;20528;-80
2021/10/06 10:20:33;;;;;;;3.63;0.90;;;;;;;14.92;100.00;97928.78;5006294;28;20480;-78
2021/10/06 10:23:04;;;;;;;3.58;0.90;;;;;;;14.94;100.00;97923.00;5002813;28;20059;-80
2021/10/06 10:25:40;;;;;;;4.03;1.02;;;;;;;14.86;100.00;97930.13;4999932;28;20070;-79
2021/10/06 10:28:18;;;;;;;3.83;0.93;;;;;;;14.92;100.00;97923.31;4983046;28;20418;-79
2021/10/06 10:30:54;;;;;;;6.45;1.08;;;;;;;14.76;100.00;97938.69;4998887;28;20096;-79
2021/10/06 10:33:48;;;;;;;4.20;0.98;;;;;;;14.81;100.00;97935.00;4983950;28;20061;-80
2021/10/06 10:36:40;;;;;;;4.18;1.08;;;;;;;15.07;100.00;97942.94;4998639;28;20118;-79
2021/10/06 10:39:36;;;;;;;4.88;1.00;;;;;;;15.07;100.00;97937.47;5012113;28;20053;-80
2021/10/06 10:42:03;;;;;;;5.85;1.45;;;;;;;15.59;100.00;97936.56;5008363;28;20073;-79
2021/10/06 10:44:41;;;;;;;1.95;0.88;;;;;;;15.75;100.00;97944.88;4988452;28;20117;-78
2021/10/06 10:47:09;;;;;;;4.38;0.93;;;;;;;15.63;100.00;97939.44;4976739;28;20047;-78
2021/10/06 10:49:53;;;;;;;5.57;1.10;;;;;;;15.74;100.00;97954.22;4977696;28;20055;-80
2021/10/06 10:52:47;;;;;;;2.22;0.73;;;;;;;16.63;100.00;97960.53;4986377;28;20061;-80
2021/10/06 10:55:16;;;;;;;4.05;1.00;;;;;;;16.32;100.00;97952.94;4985273;28;20581;-79
2021/10/06 10:57:42;;;;;;;8.00;1.00;;;;;;;16.17;100.00;97967.31;4986118;28;20085;-79
2021/10/06 11:00:30;;;;;;;3.78;1.08;;;;;;;16.07;100.00;97971.31;4987001;28;20069;-79
2021/10/06 11:03:01;;;;;;;3.75;0.98;;;;;;;16.70;100.00;97967.00;4981981;28;20286;-79
2021/10/06 11:05:45;;;;;;;3.53;0.73;;;;;;;16.64;100.00;97964.88;4973153;28;20051;-79
2021/10/06 11:08:26;;;;;;;3.55;1.10;;;;;;;16.39;100.00;97974.22;4976559;28;20491;-79
2021/10/06 11:11:14;;;;;;;4.93;1.05;;;;;;;17.04;100.00;97979.28;4962508;28;20069;-80
2021/10/06 11:13:47;;;;;;;5.85;0.90;;;;;;;17.33;100.00;97962.53;4985328;28;20081;-80
2021/10/06 11:16:14;;;;;;;6.00;1.13;;;;;;;17.56;100.00;97972.91;4999269;28;20046;-80
2021/10/06 11:18:58;;;;;;;5.32;0.98;;;;;;;17.96;100.00;97963.34;4987656;28;20137;-79
2021/10/06 11:21:37;;;;;;;5.13;1.00;;;;;;;17.94;100.00;97971.13;4958256;28;20057;-79
2021/10/06 11:24:25;;;;;;;3.47;0.93;;;;;;;17.82;100.00;97970.44;4968202;28;20112;-80
2021/10/06 11:27:01;;;;;;;4.72;0.90;;;;;;;17.71;87.38;97963.91;4977743;28;20070;-79
2021/10/06 11:29:27;;;;;;;4.10;0.95;;;;;;;16.83;100.00;97964.25;4983803;28;20076;-80
2021/10/06 11:32:02;;;;;;;7.03;1.15;;;;;;;16.74;100.00;97959.72;4997524;28;20057;-80
2021/10/06 11:34:30;;;;;;;3.58;0.70;;;;;;;16.97;100.00;97970.09;5013386;28;20483;-79